createdAt,value
2023-05-26T00:00:15.648Z,23.73
2023-05-26T00:02:43.610Z,21.25
2023-05-26T00:05:11.547Z,21.58
2023-05-26T00:07:41.632Z,20.13
2023-05-26T00:10:11.436Z,19.23
2023-05-26T00:12:40.071Z,21.42
2023-05-26T00:15:08.977Z,18.73
2023-05-26T00:17:37.538Z,15.27
2023-05-26T00:20:08.747Z,16.70
2023-05-26T00:22:36.396Z,20.67
2023-05-26T00:25:04.613Z,31.40
2023-05-26T00:27:31.880Z,18.60
2023-05-26T00:29:59.390Z,24.25
2023-05-26T00:32:27.232Z,19.25
2023-05-26T00:34:54.545Z,25.30
2023-05-26T00:37:23.326Z,20.67
2023-05-26T00:39:50.631Z,19.52
2023-05-26T00:42:18.804Z,21.20
2023-05-26T00:44:46.181Z,20.05
2023-05-26T00:47:13.580Z,22.83
2023-05-26T00:49:41.082Z,18.45
2023-05-26T00:52:08.741Z,24.58
2023-05-26T00:54:36.582Z,20.17
2023-05-26T00:57:05.125Z,17.45
2023-05-26T00:59:33.543Z,25.73
2023-05-26T01:02:02.370Z,20.90
2023-05-26T01:04:30.246Z,16.75
2023-05-26T01:06:57.780Z,19.25
2023-05-26T01:09:25.480Z,20.40
2023-05-26T01:12:08.778Z,22.85
2023-05-26T01:15:02.869Z,16.38
2023-05-26T01:18:11.891Z,22.23
2023-05-26T01:21:06.875Z,22.25
2023-05-26T01:24:22.081Z,26.63
2023-05-26T01:27:09.657Z,20.48
2023-05-26T01:29:37.588Z,19.13
2023-05-26T01:32:17.004Z,22.85
2023-05-26T01:34:44.383Z,28.95
2023-05-26T01:37:12.070Z,21.60
2023-05-26T01:39:39.501Z,32.03
2023-05-26T01:42:31.387Z,18.77
2023-05-26T01:45:17.892Z,18.00
2023-05-26T01:47:56.267Z,18.67
2023-05-26T01:50:58.511Z,27.33
2023-05-26T01:53:32.004Z,23.20
2023-05-26T01:56:02.283Z,20.58
2023-05-26T01:58:31.838Z,20.50
2023-05-26T02:00:59.604Z,23.63
2023-05-26T02:03:28.266Z,22.40
2023-05-26T02:05:56.043Z,24.90
2023-05-26T02:08:23.578Z,19.80
2023-05-26T02:10:51.102Z,18.40
2023-05-26T02:13:18.555Z,23.67
2023-05-26T02:15:46.048Z,20.30
2023-05-26T02:18:13.852Z,23.77
2023-05-26T02:20:41.799Z,25.92
2023-05-26T02:23:09.357Z,24.00
2023-05-26T02:25:38.090Z,24.25
2023-05-26T02:28:05.815Z,20.75
2023-05-26T02:30:34.552Z,17.10
2023-05-26T02:33:03.402Z,18.85
2023-05-26T02:35:30.817Z,21.98
2023-05-26T02:37:58.187Z,19.80
2023-05-26T02:40:26.554Z,19.55
2023-05-26T02:42:53.830Z,20.75
2023-05-26T02:45:21.404Z,20.55
2023-05-26T02:47:48.767Z,19.02
2023-05-26T02:50:16.423Z,28.17
2023-05-26T02:52:43.794Z,17.88
2023-05-26T02:55:12.641Z,23.75
2023-05-26T02:57:40.330Z,18.25
2023-05-26T03:00:12.233Z,21.67
2023-05-26T03:02:40.294Z,19.42
2023-05-26T03:05:08.553Z,19.52
2023-05-26T03:07:35.957Z,17.67
2023-05-26T03:10:05.656Z,23.75
2023-05-26T03:12:33.142Z,18.40
2023-05-26T03:15:04.858Z,22.77
2023-05-26T03:17:33.120Z,23.70
2023-05-26T03:20:00.645Z,24.73
2023-05-26T03:22:41.265Z,27.20
2023-05-26T03:25:16.316Z,17.67
2023-05-26T03:27:48.501Z,19.88
2023-05-26T03:30:16.064Z,29.23
2023-05-26T03:32:45.604Z,26.25
2023-05-26T03:35:13.779Z,23.98
2023-05-26T03:37:41.223Z,23.35
2023-05-26T03:40:11.434Z,18.63
2023-05-26T03:42:39.603Z,23.80
2023-05-26T03:45:08.028Z,29.27
2023-05-26T03:47:35.987Z,16.85
2023-05-26T03:50:06.758Z,23.67
2023-05-26T03:52:37.715Z,22.70
2023-05-26T03:55:10.624Z,17.35
2023-05-26T03:57:41.406Z,19.95
2023-05-26T04:00:13.793Z,24.92
2023-05-26T04:02:52.815Z,17.08
2023-05-26T04:05:20.571Z,21.88
2023-05-26T04:07:48.312Z,21.48
2023-05-26T04:10:15.975Z,21.90
2023-05-26T04:12:44.253Z,16.30
2023-05-26T04:15:12.017Z,26.77
2023-05-26T04:17:39.771Z,21.75
2023-05-26T04:20:12.200Z,18.20
2023-05-26T04:22:41.091Z,18.20
2023-05-26T04:25:09.425Z,18.27
2023-05-26T04:27:58.617Z,17.45
2023-05-26T04:30:44.092Z,19.67
2023-05-26T04:33:14.119Z,24.23
2023-05-26T04:35:51.611Z,27.65
2023-05-26T04:38:21.643Z,18.33
2023-05-26T04:40:49.914Z,23.98
2023-05-26T04:43:17.435Z,23.35
2023-05-26T04:45:45.303Z,24.85
2023-05-26T04:48:13.612Z,22.73
2023-05-26T04:50:42.576Z,16.55
2023-05-26T04:53:10.750Z,22.15
2023-05-26T04:55:38.141Z,19.75
2023-05-26T04:58:09.089Z,17.58
2023-05-26T05:00:37.515Z,35.40
2023-05-26T05:03:40.754Z,22.33
2023-05-26T05:06:13.020Z,23.08
2023-05-26T05:08:40.619Z,23.08
2023-05-26T05:11:08.788Z,18.00
2023-05-26T05:13:42.073Z,24.27
2023-05-26T05:16:09.660Z,18.40
2023-05-26T05:18:38.197Z,26.95
2023-05-26T05:21:06.134Z,26.95
2023-05-26T05:23:35.494Z,11.60
2023-05-26T05:26:04.734Z,25.25
2023-05-26T05:28:34.025Z,21.10
2023-05-26T05:31:09.283Z,16.20
2023-05-26T05:33:44.064Z,19.60
2023-05-26T05:36:12.463Z,20.13
2023-05-26T05:38:40.556Z,18.58
2023-05-26T05:41:08.019Z,20.13
2023-05-26T05:43:36.314Z,22.00
2023-05-26T05:46:05.620Z,22.00
2023-05-26T05:48:53.338Z,19.38
2023-05-26T05:51:34.364Z,23.48
2023-05-26T05:54:05.853Z,20.40
2023-05-26T05:56:35.049Z,20.85
2023-05-26T05:59:03.036Z,17.10
2023-05-26T06:01:31.505Z,23.67
2023-05-26T06:04:00.183Z,15.73
2023-05-26T06:06:27.569Z,24.83
2023-05-26T06:08:54.902Z,15.10
2023-05-26T06:11:22.455Z,22.50
2023-05-26T06:13:49.884Z,15.75
2023-05-26T06:16:17.283Z,22.85
2023-05-26T06:18:44.839Z,18.77
2023-05-26T06:21:13.472Z,21.98
2023-05-26T06:23:42.427Z,22.75
2023-05-26T06:26:10.722Z,29.50
2023-05-26T06:28:37.992Z,21.38
2023-05-26T06:31:06.642Z,14.63
2023-05-26T06:33:40.763Z,29.75
2023-05-26T06:36:09.256Z,24.83
2023-05-26T06:38:37.741Z,18.90
2023-05-26T06:41:23.303Z,18.63
2023-05-26T06:43:50.723Z,21.95
2023-05-26T06:46:18.164Z,20.95
2023-05-26T06:48:46.017Z,19.63
2023-05-26T06:51:24.027Z,24.13
2023-05-26T06:53:51.431Z,16.90
2023-05-26T06:56:19.598Z,23.77
2023-05-26T06:58:47.133Z,18.50
2023-05-26T07:01:14.603Z,22.50
2023-05-26T07:03:42.066Z,25.55
2023-05-26T07:06:09.544Z,17.25
2023-05-26T07:08:39.788Z,18.88
2023-05-26T07:11:21.041Z,16.98
2023-05-26T07:13:55.801Z,19.80
2023-05-26T07:16:23.511Z,19.15
2023-05-26T07:18:51.619Z,19.83
2023-05-26T07:21:22.945Z,16.20
2023-05-26T07:23:56.165Z,22.50
2023-05-26T07:26:25.415Z,22.08
2023-05-26T07:28:53.590Z,20.50
2023-05-26T07:31:23.226Z,17.05
2023-05-26T07:33:55.877Z,19.80
2023-05-26T07:36:23.376Z,18.73
2023-05-26T07:38:51.025Z,20.80
2023-05-26T07:41:18.692Z,21.13
2023-05-26T07:43:46.218Z,22.63
2023-05-26T07:46:15.612Z,12.77
2023-05-26T07:48:42.963Z,18.23
2023-05-26T07:51:10.552Z,16.40
2023-05-26T07:53:38.871Z,23.75
2023-05-26T07:56:08.420Z,20.90
2023-05-26T07:58:37.042Z,16.45
2023-05-26T08:01:08.633Z,25.25
2023-05-26T08:03:37.354Z,19.95
2023-05-26T08:06:17.582Z,22.25
2023-05-26T08:08:52.071Z,18.05
2023-05-26T08:11:19.483Z,20.15
2023-05-26T08:13:46.828Z,19.15
2023-05-26T08:16:17.353Z,15.18
2023-05-26T08:18:46.018Z,17.25
2023-05-26T08:21:14.858Z,23.95
2023-05-26T08:23:42.784Z,23.02
2023-05-26T08:26:10.500Z,26.38
2023-05-26T08:28:37.859Z,25.33
2023-05-26T08:31:05.511Z,17.00
2023-05-26T08:33:32.987Z,13.43
2023-05-26T08:36:00.410Z,11.38
2023-05-26T08:38:28.403Z,18.95
2023-05-26T08:41:01.836Z,18.13
2023-05-26T08:43:53.432Z,15.13
2023-05-26T08:46:23.988Z,17.40
2023-05-26T08:48:54.280Z,16.10
2023-05-26T08:51:21.657Z,18.02
2023-05-26T08:53:51.161Z,24.75
2023-05-26T08:56:19.487Z,16.90
2023-05-26T08:58:50.676Z,16.65
2023-05-26T09:01:20.148Z,16.65
2023-05-26T09:03:47.563Z,13.10
2023-05-26T09:06:16.645Z,15.50
2023-05-26T09:08:43.949Z,16.77
2023-05-26T09:11:26.847Z,19.58
2023-05-26T09:13:57.344Z,18.15
2023-05-26T09:16:28.948Z,14.35
2023-05-26T09:18:59.735Z,13.23
2023-05-26T09:21:28.873Z,12.25
2023-05-26T09:24:01.747Z,12.13
2023-05-26T09:26:36.281Z,16.17
2023-05-26T09:29:06.618Z,16.70
2023-05-26T09:31:50.641Z,13.25
2023-05-26T09:34:22.298Z,14.35
2023-05-26T09:36:54.870Z,17.25
2023-05-26T09:39:33.883Z,18.33
2023-05-26T09:42:07.871Z,15.43
2023-05-26T09:44:37.191Z,13.15
2023-05-26T09:47:08.675Z,13.98
2023-05-26T09:49:41.410Z,13.98
2023-05-26T09:52:13.108Z,15.52
2023-05-26T09:54:42.977Z,14.95
2023-05-26T09:57:15.015Z,14.85
2023-05-26T09:59:51.167Z,15.50
2023-05-26T10:02:25.107Z,15.48
2023-05-26T10:04:54.628Z,18.38
2023-05-26T10:07:23.368Z,15.35
2023-05-26T10:10:04.833Z,14.55
2023-05-26T10:12:35.609Z,12.38
2023-05-26T10:15:05.784Z,12.80
2023-05-26T10:17:33.790Z,14.23
2023-05-26T10:20:03.690Z,15.98
2023-05-26T10:23:13.989Z,12.75
2023-05-26T10:26:26.272Z,16.45
2023-05-26T10:29:11.279Z,13.00
2023-05-26T10:31:41.670Z,10.75
2023-05-26T10:34:46.207Z,12.57
2023-05-26T10:37:18.976Z,16.40
2023-05-26T10:39:46.399Z,13.60
2023-05-26T10:42:32.597Z,16.85
2023-05-26T10:45:19.702Z,16.02
2023-05-26T10:47:50.084Z,15.57
2023-05-26T10:50:17.901Z,13.75
2023-05-26T10:52:52.487Z,12.88
2023-05-26T10:55:54.510Z,9.80
2023-05-26T10:58:32.984Z,13.23
2023-05-26T11:01:15.784Z,13.60
2023-05-26T11:03:50.150Z,13.70
2023-05-26T11:06:36.809Z,12.20
2023-05-26T11:09:12.044Z,11.10
2023-05-26T11:12:13.503Z,15.70
2023-05-26T11:14:41.297Z,14.50
2023-05-26T11:17:08.838Z,11.73
2023-05-26T11:19:39.623Z,13.00
2023-05-26T11:22:14.024Z,15.60
2023-05-26T11:24:41.591Z,12.98
2023-05-26T11:27:08.915Z,13.35
2023-05-26T11:29:37.540Z,17.95
2023-05-26T11:32:05.849Z,12.93
2023-05-26T11:34:35.544Z,14.48
2023-05-26T11:37:03.079Z,12.57
2023-05-26T11:39:36.948Z,11.77
2023-05-26T11:42:11.675Z,12.32
2023-05-26T11:44:40.510Z,10.40
2023-05-26T11:47:08.507Z,10.52
2023-05-26T11:49:35.972Z,11.73
2023-05-26T11:52:03.866Z,10.13
2023-05-26T11:54:34.199Z,11.30
2023-05-26T11:57:01.703Z,10.25
2023-05-26T11:59:31.272Z,9.68
2023-05-26T12:02:04.251Z,11.38
2023-05-26T12:04:34.958Z,13.27
2023-05-26T12:07:02.951Z,10.30
2023-05-26T12:09:30.673Z,12.65
2023-05-26T12:11:58.865Z,11.65
2023-05-26T12:14:28.399Z,11.18
2023-05-26T12:16:56.991Z,11.48
2023-05-26T12:19:26.372Z,15.73
2023-05-26T12:21:58.676Z,9.30
2023-05-26T12:24:38.765Z,14.57
2023-05-26T12:27:08.101Z,12.90
2023-05-26T12:29:45.453Z,12.57
2023-05-26T12:32:13.355Z,12.88
2023-05-26T12:34:42.945Z,12.10
2023-05-26T12:37:11.331Z,12.52
2023-05-26T12:39:38.844Z,17.05
2023-05-26T12:42:08.230Z,13.65
2023-05-26T12:44:35.676Z,11.35
2023-05-26T12:47:03.177Z,12.13
2023-05-26T12:49:30.555Z,12.18
2023-05-26T12:51:57.828Z,15.30
2023-05-26T12:54:25.198Z,11.25
2023-05-26T12:56:54.118Z,10.77
2023-05-26T12:59:24.241Z,15.77
2023-05-26T13:01:51.703Z,13.88
2023-05-26T13:04:19.820Z,9.90
2023-05-26T13:06:56.454Z,10.38
2023-05-26T13:09:25.983Z,9.43
2023-05-26T13:11:54.381Z,12.80
2023-05-26T13:14:21.961Z,11.38
2023-05-26T13:16:49.475Z,12.23
2023-05-26T13:19:17.912Z,8.13
2023-05-26T13:21:47.851Z,9.70
2023-05-26T13:24:16.037Z,11.75
2023-05-26T13:26:45.061Z,10.05
2023-05-26T13:29:13.682Z,13.27
2023-05-26T13:31:42.724Z,10.70
2023-05-26T13:34:10.546Z,14.27
2023-05-26T13:36:41.393Z,10.07
2023-05-26T13:39:08.905Z,14.73
2023-05-26T13:41:37.246Z,13.25
2023-05-26T13:44:05.010Z,10.63
2023-05-26T13:46:32.389Z,11.50
2023-05-26T13:49:01.052Z,11.15
2023-05-26T13:51:29.422Z,16.33
2023-05-26T13:53:58.275Z,11.98
2023-05-26T13:56:27.431Z,9.82
2023-05-26T13:58:55.653Z,11.00
2023-05-26T14:03:56.850Z,13.77
2023-05-26T14:06:26.132Z,10.75
2023-05-26T14:08:54.556Z,14.30
2023-05-26T14:11:23.593Z,11.57
2023-05-26T14:13:52.569Z,14.95
2023-05-26T14:16:20.980Z,11.07
2023-05-26T14:19:04.368Z,8.40
2023-05-26T14:22:00.534Z,15.27
2023-05-26T14:24:24.873Z,7.78
2023-05-26T14:26:52.286Z,10.73
2023-05-26T14:29:22.080Z,9.80
2023-05-26T14:31:53.838Z,12.15
2023-05-26T14:34:21.624Z,13.35
2023-05-26T14:36:48.971Z,11.57
2023-05-26T14:39:16.538Z,9.25
2023-05-26T14:41:44.689Z,9.43
2023-05-26T14:44:12.137Z,12.57
2023-05-26T14:46:41.163Z,9.23
2023-05-26T14:49:12.021Z,15.23
2023-05-26T14:51:39.463Z,11.52
2023-05-26T14:54:07.435Z,12.38
2023-05-26T14:56:35.154Z,9.85
2023-05-26T14:59:03.359Z,12.20
2023-05-26T15:01:31.031Z,10.32
2023-05-26T15:04:13.577Z,20.40
2023-05-26T15:06:43.069Z,13.00
2023-05-26T15:09:10.419Z,14.45
2023-05-26T15:11:37.794Z,11.38
2023-05-26T15:14:06.917Z,12.18
2023-05-26T15:16:37.639Z,11.75
2023-05-26T15:19:05.721Z,11.70
2023-05-26T15:21:38.853Z,14.85
2023-05-26T15:24:08.847Z,13.10
2023-05-26T15:26:36.842Z,11.30
2023-05-26T15:29:04.336Z,12.88
2023-05-26T15:31:33.383Z,12.48
2023-05-26T15:34:00.805Z,10.43
2023-05-26T15:36:28.547Z,8.82
2023-05-26T15:38:58.025Z,10.30
2023-05-26T15:41:30.022Z,9.05
2023-05-26T15:44:04.101Z,13.30
2023-05-26T15:46:31.643Z,11.35
2023-05-26T15:48:59.102Z,7.78
2023-05-26T15:51:26.450Z,12.00
2023-05-26T15:53:53.824Z,9.25
2023-05-26T15:56:21.367Z,9.02
2023-05-26T15:58:48.849Z,9.07
2023-05-26T16:01:19.055Z,10.50
2023-05-26T16:03:47.218Z,10.15
2023-05-26T16:06:15.214Z,13.07
2023-05-26T16:08:43.158Z,9.88
2023-05-26T16:11:10.602Z,8.85
2023-05-26T16:13:37.939Z,8.48
2023-05-26T16:16:05.802Z,11.38
2023-05-26T16:18:33.399Z,12.32
2023-05-26T16:21:01.052Z,19.77
2023-05-26T16:23:28.784Z,12.48
2023-05-26T16:25:56.302Z,10.90
2023-05-26T16:28:24.262Z,10.15
2023-05-26T16:30:53.648Z,8.20
2023-05-26T16:33:21.846Z,13.02
2023-05-26T16:35:54.294Z,9.27
2023-05-26T16:38:28.645Z,8.27
2023-05-26T16:40:58.509Z,8.85
2023-05-26T16:43:46.663Z,10.10
2023-05-26T16:48:40.338Z,10.88
2023-05-26T16:51:07.584Z,9.73
2023-05-26T16:53:35.084Z,8.32
2023-05-26T16:56:02.405Z,15.98
2023-05-26T16:58:29.960Z,12.90
2023-05-26T17:00:57.391Z,11.30
2023-05-26T17:03:27.994Z,8.15
2023-05-26T17:05:55.840Z,10.15
2023-05-26T17:08:23.576Z,11.38
2023-05-26T17:10:51.631Z,13.13
2023-05-26T17:13:18.991Z,10.32
2023-05-26T17:15:46.345Z,11.13
2023-05-26T17:18:14.667Z,10.15
2023-05-26T17:20:44.763Z,12.90
2023-05-26T17:23:13.841Z,9.10
2023-05-26T17:25:41.180Z,9.45
2023-05-26T17:28:10.628Z,10.88
2023-05-26T17:30:38.451Z,13.18
2023-05-26T17:33:06.011Z,12.27
2023-05-26T17:35:35.453Z,10.25
2023-05-26T17:38:03.677Z,11.57
2023-05-26T17:40:31.381Z,12.70
2023-05-26T17:42:58.636Z,10.75
2023-05-26T17:45:29.347Z,9.57
2023-05-26T17:47:56.688Z,11.20
2023-05-26T17:50:24.198Z,12.85
2023-05-26T17:52:51.646Z,14.48
2023-05-26T17:55:24.492Z,16.15
2023-05-26T17:57:52.105Z,12.55
2023-05-26T18:00:20.244Z,13.57
2023-05-26T18:02:48.994Z,10.32
2023-05-26T18:05:19.049Z,10.27
2023-05-26T18:07:51.376Z,14.57
2023-05-26T18:10:18.855Z,9.82
2023-05-26T18:12:46.315Z,13.20
2023-05-26T18:15:15.085Z,12.45
2023-05-26T18:17:42.604Z,14.35
2023-05-26T18:20:11.449Z,11.95
2023-05-26T18:22:40.494Z,15.65
2023-05-26T18:25:11.261Z,12.20
2023-05-26T18:27:39.248Z,13.25
2023-05-26T18:30:07.779Z,14.25
2023-05-26T18:32:35.219Z,13.65
2023-05-26T18:35:02.573Z,11.38
2023-05-26T18:37:31.291Z,10.68
2023-05-26T18:40:01.553Z,11.48
2023-05-26T18:42:29.210Z,13.02
2023-05-26T18:44:58.187Z,12.98
2023-05-26T18:47:26.655Z,13.85
2023-05-26T18:49:55.685Z,14.30
2023-05-26T18:52:23.342Z,20.08
2023-05-26T18:54:51.407Z,14.20
2023-05-26T18:57:19.138Z,10.90
2023-05-26T18:59:46.944Z,13.35
2023-05-26T19:02:14.526Z,12.82
2023-05-26T19:04:42.169Z,11.13
2023-05-26T19:07:10.821Z,11.68
2023-05-26T19:09:38.235Z,11.43
2023-05-26T19:12:05.883Z,12.52
2023-05-26T19:14:33.377Z,10.98
2023-05-26T19:17:00.748Z,16.00
2023-05-26T19:19:28.369Z,14.75
2023-05-26T19:21:56.851Z,13.63
2023-05-26T19:24:24.354Z,15.38
2023-05-26T19:26:51.772Z,21.80
2023-05-26T19:29:19.116Z,16.10
2023-05-26T19:31:46.509Z,13.88
2023-05-26T19:34:13.872Z,10.10
2023-05-26T19:36:41.965Z,14.93
2023-05-26T19:39:09.432Z,14.07
2023-05-26T19:41:37.222Z,8.70
2023-05-26T19:44:04.585Z,10.63
2023-05-26T19:46:32.822Z,11.98
2023-05-26T19:49:00.567Z,11.15
2023-05-26T19:51:27.944Z,12.00
2023-05-26T19:53:55.276Z,12.30
2023-05-26T19:56:23.516Z,12.52
2023-05-26T19:58:50.813Z,15.40
2023-05-26T20:01:20.687Z,11.13
2023-05-26T20:03:48.091Z,10.77
2023-05-26T20:06:15.749Z,12.05
2023-05-26T20:08:43.003Z,7.57
2023-05-26T20:11:10.378Z,10.73
2023-05-26T20:13:37.794Z,9.77
2023-05-26T20:16:06.961Z,13.48
2023-05-26T20:18:35.524Z,12.85
2023-05-26T20:21:03.028Z,11.43
2023-05-26T20:23:30.413Z,13.88
2023-05-26T20:25:57.780Z,18.42
2023-05-26T20:28:25.232Z,14.88
2023-05-26T20:30:52.517Z,13.75
2023-05-26T20:33:19.895Z,14.57
2023-05-26T20:35:47.450Z,12.82
2023-05-26T20:38:14.870Z,11.63
2023-05-26T20:40:42.365Z,14.50
2023-05-26T20:43:09.739Z,17.88
2023-05-26T20:45:38.634Z,16.85
2023-05-26T20:48:05.956Z,14.60
2023-05-26T20:50:33.361Z,16.50
2023-05-26T20:53:02.270Z,14.23
2023-05-26T20:55:35.143Z,12.95
2023-05-26T20:58:02.441Z,13.23
2023-05-26T21:00:29.902Z,18.00
2023-05-26T21:02:57.596Z,13.65
2023-05-26T21:05:27.407Z,12.52
2023-05-26T21:07:54.852Z,13.32
2023-05-26T21:10:22.336Z,13.18
2023-05-26T21:12:49.612Z,15.60
2023-05-26T21:15:17.235Z,12.30
2023-05-26T21:17:44.639Z,16.73
2023-05-26T21:20:12.053Z,13.52
2023-05-26T21:22:39.402Z,11.50
2023-05-26T21:25:08.996Z,14.90
2023-05-26T21:27:36.405Z,12.90
2023-05-26T21:30:05.556Z,13.02
2023-05-26T21:32:32.923Z,16.23
2023-05-26T21:35:00.436Z,14.38
2023-05-26T21:37:27.777Z,10.07
2023-05-26T21:39:55.129Z,10.25
2023-05-26T21:42:23.396Z,13.05
2023-05-26T21:44:51.769Z,13.85
2023-05-26T21:47:20.688Z,11.27
2023-05-26T21:49:48.479Z,14.02
2023-05-26T21:52:15.923Z,14.10
2023-05-26T21:54:43.234Z,26.95
2023-05-26T21:57:10.788Z,14.45
2023-05-26T21:59:38.296Z,10.30
2023-05-26T22:02:06.257Z,16.50
2023-05-26T22:04:33.872Z,12.98
2023-05-26T22:07:01.178Z,15.73
2023-05-26T22:09:28.577Z,13.25
2023-05-26T22:11:56.028Z,19.45
2023-05-26T22:14:26.177Z,11.93
2023-05-26T22:16:54.750Z,13.65
2023-05-26T22:19:22.230Z,12.52
2023-05-26T22:21:49.544Z,12.38
2023-05-26T22:24:16.918Z,12.20
2023-05-26T22:26:44.998Z,13.27
2023-05-26T22:29:12.541Z,14.32
2023-05-26T22:31:39.878Z,14.40
2023-05-26T22:34:07.178Z,11.43
2023-05-26T22:36:34.439Z,14.35
2023-05-26T22:39:06.085Z,14.30
2023-05-26T22:41:34.283Z,12.88
2023-05-26T22:44:01.593Z,10.98
2023-05-26T22:46:30.226Z,10.77
2023-05-26T22:48:57.617Z,12.43
2023-05-26T22:51:25.176Z,12.70
2023-05-26T22:53:52.459Z,11.65
2023-05-26T22:56:20.121Z,13.63
2023-05-26T22:58:48.185Z,10.27
2023-05-26T23:01:15.572Z,12.23
2023-05-26T23:03:43.087Z,9.60
2023-05-26T23:06:10.656Z,13.73
2023-05-26T23:08:38.841Z,11.90
2023-05-26T23:11:10.110Z,9.50
2023-05-26T23:13:38.262Z,18.25
2023-05-26T23:16:06.795Z,14.85
2023-05-26T23:18:35.164Z,12.70
2023-05-26T23:21:03.093Z,11.77
2023-05-26T23:23:30.469Z,16.77
2023-05-26T23:25:58.443Z,16.15
2023-05-26T23:28:25.874Z,9.65
2023-05-26T23:30:53.310Z,12.52
2023-05-26T23:33:20.615Z,11.98
2023-05-26T23:35:48.258Z,16.58
2023-05-26T23:38:16.230Z,13.50
2023-05-26T23:40:43.860Z,10.70
2023-05-26T23:43:12.141Z,8.63
2023-05-26T23:45:39.862Z,13.52
2023-05-26T23:48:07.535Z,13.20
2023-05-26T23:50:34.889Z,9.05
2023-05-26T23:53:02.275Z,13.98
2023-05-26T23:55:29.588Z,11.93
2023-05-26T23:57:57.013Z,9.35
